Time;durP1;ratioP1;P1;durP2;ratioP2;P2;SDS_P1;SDS_P2;PMS_P1;PMS_P2;Temp;Humidity;BMP_temperature;BMP_pressure;BME280_temperature;BME280_humidity;BME280_pressure;Samples;Min_cycle;Max_cycle;Signal;HPM_P1;HPM_P2
2022/10/27 00:01:43;;;;;;;;;;;13.30;99.90;;;;;;6308620;22;19914;-75
2022/10/27 00:04:09;;;;;;;;;;;13.20;99.90;;;;;;6280843;22;19923;-74
2022/10/27 00:06:36;;;;;;;;;;;13.20;99.90;;;;;;6308583;22;19985;-75
2022/10/27 00:09:05;;;;;;;;;;;13.20;99.90;;;;;;6308595;22;19919;-75
2022/10/27 00:11:30;;;;;;;;;;;13.10;99.90;;;;;;6280729;22;19982;-75
2022/10/27 00:13:56;;;;;;;;;;;13.10;99.90;;;;;;6281265;22;19922;-75
2022/10/27 00:16:21;;;;;;;;;;;13.00;99.90;;;;;;6307830;22;20359;-75
2022/10/27 00:18:47;;;;;;;;;;;13.10;99.90;;;;;;6280847;22;19990;-75
2022/10/27 00:21:13;;;;;;;;;;;12.90;99.90;;;;;;6308104;22;19915;-75
2022/10/27 00:23:40;;;;;;;;;;;12.90;99.90;;;;;;6308393;22;20052;-75
2022/10/27 00:26:07;;;;;;;;;;;12.80;99.90;;;;;;6308294;22;19922;-74
2022/10/27 00:28:32;;;;;;;;;;;12.80;99.90;;;;;;6306857;22;19914;-74
2022/10/27 00:31:03;;;;;;;;;;;12.80;99.90;;;;;;6308139;22;20236;-74
2022/10/27 00:33:28;;;;;;;;;;;12.80;99.90;;;;;;6308013;22;19919;-73
2022/10/27 00:35:54;;;;;;;;;;;12.80;99.90;;;;;;6308171;22;19922;-75
2022/10/27 00:38:23;;;;;;;;;;;12.90;99.90;;;;;;6280694;22;19915;-74
2022/10/27 00:40:48;;;;;;;;;;;12.90;99.90;;;;;;6280518;22;20260;-74
2022/10/27 00:43:23;;;;;;;;;;;13.00;99.90;;;;;;6281046;22;19919;-74
2022/10/27 00:45:49;;;;;;;;;;;13.00;99.90;;;;;;6280581;22;20224;-75
2022/10/27 00:48:15;;;;;;;;;;;13.10;99.90;;;;;;6308186;22;19922;-74
2022/10/27 00:50:41;;;;;;;;;;;13.10;99.90;;;;;;6307800;22;19915;-74
2022/10/27 00:53:07;;;;;;;;;;;13.20;99.90;;;;;;6308365;22;19982;-74
2022/10/27 00:55:34;;;;;;;;;;;13.20;99.90;;;;;;6280700;22;19947;-74
2022/10/27 00:58:14;;;;;;;;;;;13.20;99.90;;;;;;6308235;22;19968;-74
2022/10/27 01:00:41;;;;;;;;;;;13.20;99.90;;;;;;6306489;22;19915;-75
2022/10/27 01:03:11;;;;;;;;;;;13.30;99.90;;;;;;6307771;22;20366;-75
2022/10/27 01:05:39;;;;;;;;;;;13.30;99.90;;;;;;6308147;22;20281;-74
2022/10/27 01:08:05;;;;;;;;;;;13.30;99.90;;;;;;6309075;22;19989;-75
2022/10/27 01:10:32;;;;;;;;;;;13.40;99.90;;;;;;6310319;22;19915;-75
2022/10/27 01:12:58;;;;;;;;;;;13.40;99.90;;;;;;6310212;22;19915;-75
2022/10/27 01:15:27;;;;;;;;;;;13.40;99.90;;;;;;6309838;22;19945;-75
2022/10/27 01:18:13;;;;;;;;;;;13.40;99.90;;;;;;6309956;22;19986;-75
2022/10/27 01:20:52;;;;;;;;;;;15.70;99.90;;;;;;6282596;22;19958;-75
2022/10/27 01:23:36;;;;;;;;;;;13.50;99.90;;;;;;6309763;22;19958;-77
2022/10/27 01:26:13;;;;;;;;;;;13.50;99.90;;;;;;6310105;22;19961;-75
2022/10/27 01:28:41;;;;;;;;;;;13.50;99.90;;;;;;6309952;22;19915;-75
2022/10/27 01:31:11;;;;;;;;;;;13.50;99.90;;;;;;6310086;22;19995;-75
2022/10/27 01:33:46;;;;;;;;;;;13.50;99.90;;;;;;6309645;22;19921;-74
2022/10/27 01:36:22;;;;;;;;;;;13.40;99.90;;;;;;6282389;22;19921;-74
2022/10/27 01:38:57;;;;;;;;;;;13.50;99.90;;;;;;6309658;22;19922;-75
2022/10/27 01:41:26;;;;;;;;;;;13.50;99.90;;;;;;6309888;22;19915;-75
2022/10/27 01:43:55;;;;;;;;;;;13.50;99.90;;;;;;6282220;22;20225;-75
2022/10/27 01:46:26;;;;;;;;;;;13.50;99.90;;;;;;6282173;22;19967;-75
2022/10/27 01:48:52;;;;;;;;;;;13.50;99.90;;;;;;6309862;22;19915;-74
2022/10/27 01:51:17;;;;;;;;;;;13.50;99.90;;;;;;6309826;22;20320;-74
2022/10/27 01:53:47;;;;;;;;;;;13.50;99.90;;;;;;6309778;22;19922;-74
2022/10/27 01:56:28;;;;;;;;;;;13.50;99.90;;;;;;6309466;22;19993;-74
2022/10/27 01:59:01;;;;;;;;;;;13.50;99.90;;;;;;6309304;22;19915;-74
2022/10/27 02:01:54;;;;;;;;;;;13.50;99.90;;;;;;6282113;22;20251;-74
2022/10/27 02:04:24;;;;;;;;;;;13.50;99.90;;;;;;6309651;22;19998;-75
2022/10/27 02:07:02;;;;;;;;;;;13.40;99.90;;;;;;6307925;22;19947;-74
2022/10/27 02:09:42;;;;;;;;;;;13.40;99.90;;;;;;6309704;22;19978;-75
2022/10/27 02:12:14;;;;;;;;;;;13.40;99.90;;;;;;6309328;22;19915;-75
2022/10/27 02:14:42;;;;;;;;;;;13.40;99.90;;;;;;6309377;22;19919;-76
2022/10/27 02:17:08;;;;;;;;;;;13.40;99.90;;;;;;6309247;22;20386;-75
2022/10/27 02:19:35;;;;;;;;;;;13.40;99.90;;;;;;6308585;22;19915;-75
2022/10/27 02:22:01;;;;;;;;;;;13.40;99.90;;;;;;6309107;22;20411;-76
2022/10/27 02:24:27;;;;;;;;;;;13.40;99.90;;;;;;6309192;22;20257;-75
2022/10/27 02:27:22;;;;;;;;;;;13.40;99.90;;;;;;6256802;22;20244;-75
2022/10/27 02:29:49;;;;;;;;;;;13.40;99.90;;;;;;6276482;22;20286;-74
2022/10/27 02:32:16;;;;;;;;;;;13.40;99.90;;;;;;6309441;22;19918;-74
2022/10/27 02:34:43;;;;;;;;;;;13.30;99.90;;;;;;6309370;22;20248;-74
2022/10/27 02:37:10;;;;;;;;;;;13.40;99.90;;;;;;6309389;22;19980;-74
2022/10/27 02:39:35;;;;;;;;;;;13.30;99.90;;;;;;6309346;22;20220;-75
2022/10/27 02:42:03;;;;;;;;;;;13.20;99.90;;;;;;6309077;22;19915;-75
2022/10/27 02:44:29;;;;;;;;;;;13.10;99.90;;;;;;6308929;22;20006;-74
2022/10/27 02:46:54;;;;;;;;;;;13.00;99.90;;;;;;6309102;22;19915;-74
2022/10/27 02:49:21;;;;;;;;;;;13.00;99.90;;;;;;6309195;22;19964;-74
2022/10/27 02:51:51;;;;;;;;;;;13.00;99.90;;;;;;6309131;22;20005;-74
2022/10/27 02:54:16;;;;;;;;;;;12.90;99.90;;;;;;6309127;22;19959;-74
2022/10/27 02:56:45;;;;;;;;;;;12.90;99.90;;;;;;6309203;22;19980;-73
2022/10/27 02:59:12;;;;;;;;;;;12.80;99.90;;;;;;6309202;22;20335;-73
2022/10/27 03:01:37;;;;;;;;;;;12.80;99.90;;;;;;6307098;22;19915;-73
2022/10/27 03:04:04;;;;;;;;;;;12.80;99.90;;;;;;6308664;22;19926;-74
2022/10/27 03:06:33;;;;;;;;;;;12.80;99.90;;;;;;6308680;22;19915;-73
2022/10/27 03:08:58;;;;;;;;;;;12.70;99.90;;;;;;6309053;22;20286;-74
2022/10/27 03:11:24;;;;;;;;;;;12.70;99.90;;;;;;6308790;22;20250;-73
2022/10/27 03:13:52;;;;;;;;;;;12.70;99.90;;;;;;6307708;22;20335;-73
2022/10/27 03:16:17;;;;;;;;;;;12.60;99.90;;;;;;6308447;22;20332;-74
2022/10/27 03:18:43;;;;;;;;;;;12.60;99.90;;;;;;6308691;22;19968;-74
2022/10/27 03:21:08;;;;;;;;;;;12.60;99.90;;;;;;6308932;22;19919;-74
2022/10/27 03:23:34;;;;;;;;;;;12.60;99.90;;;;;;6281198;22;20257;-74
2022/10/27 03:26:03;;;;;;;;;;;12.60;99.90;;;;;;6308910;22;19915;-74
2022/10/27 03:28:33;;;;;;;;;;;12.60;99.90;;;;;;6308848;22;20258;-73
2022/10/27 03:31:00;;;;;;;;;;;12.50;99.90;;;;;;6308412;22;20358;-73
2022/10/27 03:33:26;;;;;;;;;;;12.50;99.90;;;;;;6308513;22;19918;-73
2022/10/27 03:35:52;;;;;;;;;;;12.50;99.90;;;;;;6308731;22;19976;-74
2022/10/27 03:38:17;;;;;;;;;;;12.40;99.90;;;;;;6308850;22;19960;-74
2022/10/27 03:40:43;;;;;;;;;;;12.40;99.90;;;;;;6308847;22;19980;-74
2022/10/27 03:43:09;;;;;;;;;;;12.40;99.90;;;;;;6308259;22;20002;-74
2022/10/27 03:45:35;;;;;;;;;;;12.40;99.90;;;;;;6308769;22;19914;-73
2022/10/27 03:48:09;;;;;;;;;;;12.30;99.90;;;;;;6308454;22;19922;-74
2022/10/27 03:50:46;;;;;;;;;;;12.30;99.90;;;;;;6308790;22;19969;-74
2022/10/27 03:53:12;;;;;;;;;;;12.30;99.90;;;;;;6308684;22;19937;-74
2022/10/27 03:55:37;;;;;;;;;;;12.20;99.90;;;;;;6308977;22;19915;-74
2022/10/27 03:58:03;;;;;;;;;;;12.20;99.90;;;;;;6308328;22;19922;-73
2022/10/27 04:00:31;;;;;;;;;;;12.20;99.90;;;;;;6308619;22;19925;-73
2022/10/27 04:02:57;;;;;;;;;;;12.20;99.90;;;;;;6280683;22;20278;-73
2022/10/27 04:05:22;;;;;;;;;;;12.20;99.90;;;;;;6308507;22;19930;-74
2022/10/27 04:07:48;;;;;;;;;;;12.20;99.90;;;;;;6308428;22;20286;-73
2022/10/27 04:10:15;;;;;;;;;;;12.20;99.90;;;;;;6308382;22;19915;-73
2022/10/27 04:12:48;;;;;;;;;;;12.20;99.90;;;;;;6280868;22;19919;-73
2022/10/27 04:15:13;;;;;;;;;;;12.20;99.90;;;;;;6307755;22;19923;-73
2022/10/27 04:17:43;;;;;;;;;;;12.20;99.90;;;;;;6308047;22;20349;-74
2022/10/27 04:20:09;;;;;;;;;;;12.20;99.90;;;;;;6280831;22;19915;-74
2022/10/27 04:22:35;;;;;;;;;;;12.30;99.90;;;;;;6308375;22;19919;-75
2022/10/27 04:25:04;;;;;;;;;;;12.30;99.90;;;;;;6308024;22;19922;-65
2022/10/27 04:27:34;;;;;;;;;;;12.30;99.90;;;;;;6308189;22;19938;-65
2022/10/27 04:29:59;;;;;;;;;;;12.30;99.90;;;;;;6308193;22;19919;-65
2022/10/27 04:32:25;;;;;;;;;;;12.40;99.90;;;;;;6280499;22;20359;-65
2022/10/27 04:35:02;;;;;;;;;;;12.40;99.90;;;;;;6308393;22;19964;-65
2022/10/27 04:37:29;;;;;;;;;;;12.30;99.90;;;;;;6307804;22;19922;-65
2022/10/27 04:39:55;;;;;;;;;;;12.40;99.90;;;;;;6307947;22;19998;-65
2022/10/27 04:42:20;;;;;;;;;;;12.30;99.90;;;;;;6280627;22;19947;-65
2022/10/27 04:44:46;;;;;;;;;;;12.30;99.90;;;;;;6309952;22;19915;-65
2022/10/27 04:47:12;;;;;;;;;;;12.30;99.90;;;;;;6309976;22;20029;-65
2022/10/27 04:49:38;;;;;;;;;;;12.30;99.90;;;;;;6310015;22;19922;-65
2022/10/27 04:52:04;;;;;;;;;;;12.30;99.90;;;;;;6310003;22;19915;-65
2022/10/27 04:54:29;;;;;;;;;;;12.30;99.90;;;;;;6309926;22;19997;-65
2022/10/27 04:56:55;;;;;;;;;;;12.30;99.90;;;;;;6309850;22;19915;-65
2022/10/27 04:59:20;;;;;;;;;;;12.30;99.90;;;;;;6282811;22;19915;-65
2022/10/27 05:01:48;;;;;;;;;;;12.30;99.90;;;;;;6309981;22;20332;-65
2022/10/27 05:04:13;;;;;;;;;;;12.20;99.90;;;;;;6310150;22;19954;-65
2022/10/27 05:06:39;;;;;;;;;;;12.30;99.90;;;;;;6310292;22;19945;-65
2022/10/27 05:09:04;;;;;;;;;;;12.20;99.90;;;;;;6309765;22;20009;-65
2022/10/27 05:11:30;;;;;;;;;;;12.20;99.90;;;;;;6309897;22;19964;-65
2022/10/27 05:13:55;;;;;;;;;;;12.20;99.90;;;;;;6282466;22;19915;-65
2022/10/27 05:16:21;;;;;;;;;;;12.20;99.90;;;;;;6277051;22;19994;-65
2022/10/27 05:18:47;;;;;;;;;;;11.40;99.90;;;;;;6277531;22;20288;-65
2022/10/27 05:21:13;;;;;;;;;;;12.20;99.90;;;;;;6277067;22;19919;-65
2022/10/27 05:23:38;;;;;;;;;;;12.20;99.90;;;;;;6278510;22;20244;-65
2022/10/27 05:26:04;;;;;;;;;;;12.20;99.90;;;;;;6276918;22;19984;-65
2022/10/27 05:28:30;;;;;;;;;;;12.30;99.90;;;;;;6278810;22;19929;-65
2022/10/27 05:30:56;;;;;;;;;;;12.30;99.90;;;;;;6277711;22;19922;-65
2022/10/27 05:33:22;;;;;;;;;;;12.30;99.90;;;;;;6276992;22;19915;-65
2022/10/27 05:35:48;;;;;;;;;;;12.30;99.90;;;;;;6277219;22;19916;-65
2022/10/27 05:38:14;;;;;;;;;;;12.30;99.90;;;;;;6275903;22;19949;-65
2022/10/27 05:40:39;;;;;;;;;;;12.30;99.90;;;;;;6277080;22;19915;-65
2022/10/27 05:43:05;;;;;;;;;;;12.40;99.90;;;;;;6275717;22;19919;-65
2022/10/27 05:45:31;;;;;;;;;;;12.40;99.90;;;;;;6276516;22;19922;-65
2022/10/27 05:48:04;;;;;;;;;;;12.50;99.90;;;;;;6277141;22;19942;-65
2022/10/27 05:50:32;;;;;;;;;;;12.40;99.90;;;;;;6278850;22;19986;-65
2022/10/27 05:52:57;;;;;;;;;;;12.50;99.90;;;;;;6279024;22;19922;-65
2022/10/27 05:55:24;;;;;;;;;;;12.50;99.90;;;;;;6278842;22;19966;-65
2022/10/27 05:58:00;;;;;;;;;;;12.60;99.90;;;;;;6277606;22;19915;-65
2022/10/27 06:00:29;;;;;;;;;;;12.50;99.90;;;;;;6275599;22;19915;-65
2022/10/27 06:02:57;;;;;;;;;;;12.60;99.90;;;;;;6278509;22;19919;-65
2022/10/27 06:05:23;;;;;;;;;;;12.60;99.90;;;;;;6276302;22;19922;-66
2022/10/27 06:07:49;;;;;;;;;;;12.60;99.90;;;;;;6277745;22;19925;-65
2022/10/27 06:10:15;;;;;;;;;;;12.60;99.90;;;;;;6278559;22;19916;-65
2022/10/27 06:12:40;;;;;;;;;;;12.60;99.90;;;;;;6278052;22;19942;-65
2022/10/27 06:15:07;;;;;;;;;;;12.60;99.90;;;;;;6288285;22;19919;-74
2022/10/27 06:17:33;;;;;;;;;;;12.60;99.90;;;;;;6280527;22;19914;-75
2022/10/27 06:19:59;;;;;;;;;;;12.50;99.90;;;;;;6267934;22;19972;-74
2022/10/27 06:22:28;;;;;;;;;;;12.60;99.90;;;;;;6307905;22;19982;-75
2022/10/27 06:24:53;;;;;;;;;;;12.60;99.90;;;;;;6307645;22;19965;-75
2022/10/27 06:27:22;;;;;;;;;;;12.60;99.90;;;;;;6307715;22;20278;-75
2022/10/27 06:29:48;;;;;;;;;;;12.70;99.90;;;;;;6307697;22;19949;-74
2022/10/27 06:32:13;;;;;;;;;;;12.70;99.90;;;;;;6307626;22;19938;-73
2022/10/27 06:34:39;;;;;;;;;;;12.70;99.90;;;;;;6308089;22;19990;-74
2022/10/27 06:37:05;;;;;;;;;;;12.70;99.90;;;;;;6280123;22;20332;-74
2022/10/27 06:39:31;;;;;;;;;;;12.70;99.90;;;;;;6303891;22;20380;-74
2022/10/27 06:41:57;;;;;;;;;;;12.70;99.90;;;;;;6251871;22;20022;-75
2022/10/27 06:44:22;;;;;;;;;;;12.70;99.90;;;;;;6280710;22;20316;-74
2022/10/27 06:46:48;;;;;;;;;;;12.80;99.90;;;;;;6307997;22;19965;-74
2022/10/27 06:49:19;;;;;;;;;;;12.80;99.90;;;;;;6281452;22;20014;-65
2022/10/27 06:51:44;;;;;;;;;;;12.80;99.90;;;;;;6307134;22;19915;-65
2022/10/27 06:54:10;;;;;;;;;;;12.80;99.90;;;;;;6305821;22;19926;-65
2022/10/27 06:56:35;;;;;;;;;;;12.90;99.90;;;;;;6280434;22;20025;-65
2022/10/27 06:59:01;;;;;;;;;;;12.90;99.90;;;;;;6279780;22;19922;-65
2022/10/27 07:01:27;;;;;;;;;;;13.00;99.90;;;;;;6308262;22;19915;-65
2022/10/27 07:03:54;;;;;;;;;;;13.10;99.90;;;;;;6305410;22;20323;-65
2022/10/27 07:06:23;;;;;;;;;;;13.10;99.90;;;;;;6306491;22;19926;-65
2022/10/27 07:08:51;;;;;;;;;;;13.20;99.90;;;;;;6305998;22;19919;-74
2022/10/27 07:11:17;;;;;;;;;;;13.20;99.90;;;;;;6307485;22;20332;-74
2022/10/27 07:13:43;;;;;;;;;;;13.30;99.90;;;;;;6279447;22;19922;-74
2022/10/27 07:16:10;;;;;;;;;;;13.30;99.90;;;;;;6307100;22;19922;-74
2022/10/27 07:18:37;;;;;;;;;;;13.30;99.90;;;;;;6308051;22;19914;-74
2022/10/27 07:21:06;;;;;;;;;;;13.40;99.90;;;;;;6308585;22;20342;-74
2022/10/27 07:23:32;;;;;;;;;;;13.50;99.90;;;;;;6280755;22;19962;-74
2022/10/27 07:25:57;;;;;;;;;;;13.50;99.90;;;;;;6308792;22;20323;-74
2022/10/27 07:28:23;;;;;;;;;;;13.60;99.90;;;;;;6308439;22;20289;-74
2022/10/27 07:30:53;;;;;;;;;;;13.60;99.90;;;;;;6280356;22;19923;-74
2022/10/27 07:33:19;;;;;;;;;;;13.70;99.90;;;;;;6279435;22;20259;-73
2022/10/27 07:35:49;;;;;;;;;;;13.70;99.90;;;;;;6307385;22;19915;-74
2022/10/27 07:38:18;;;;;;;;;;;13.70;99.90;;;;;;6308339;22;19922;-74
2022/10/27 07:40:44;;;;;;;;;;;13.80;99.90;;;;;;6303229;22;19914;-74
2022/10/27 07:43:10;;;;;;;;;;;13.90;99.90;;;;;;6308575;22;19922;-75
2022/10/27 07:45:36;;;;;;;;;;;13.90;99.90;;;;;;6280792;22;19915;-75
2022/10/27 07:48:06;;;;;;;;;;;13.90;99.90;;;;;;6308699;22;19938;-74
2022/10/27 07:50:35;;;;;;;;;;;14.00;99.90;;;;;;6308567;22;19954;-75
2022/10/27 07:53:02;;;;;;;;;;;14.10;99.90;;;;;;6308138;22;19961;-75
2022/10/27 07:55:28;;;;;;;;;;;14.10;99.90;;;;;;6306516;22;19922;-75
2022/10/27 07:58:09;;;;;;;;;;;14.20;99.90;;;;;;6307137;22;19915;-75
2022/10/27 08:00:37;;;;;;;;;;;14.30;99.90;;;;;;6306678;22;19983;-75
2022/10/27 08:03:05;;;;;;;;;;;14.30;99.90;;;;;;6307376;22;19922;-76
2022/10/27 08:05:32;;;;;;;;;;;14.30;99.90;;;;;;6252766;22;19919;-76
2022/10/27 08:08:03;;;;;;;;;;;14.30;99.90;;;;;;6307020;22;20239;-76
2022/10/27 08:10:34;;;;;;;;;;;14.40;99.90;;;;;;6281108;22;19925;-76
2022/10/27 08:13:00;;;;;;;;;;;14.40;99.90;;;;;;6307220;22;19921;-75
2022/10/27 08:15:25;;;;;;;;;;;14.50;99.90;;;;;;6275264;22;19923;-75
2022/10/27 08:17:56;;;;;;;;;;;14.50;99.90;;;;;;6277123;22;19915;-76
2022/10/27 08:20:33;;;;;;;;;;;14.60;99.90;;;;;;6277299;22;19947;-76
2022/10/27 08:23:02;;;;;;;;;;;14.60;99.90;;;;;;6249914;22;19919;-75
2022/10/27 08:25:33;;;;;;;;;;;14.70;99.90;;;;;;6277642;22;20327;-75
2022/10/27 08:27:58;;;;;;;;;;;14.80;99.90;;;;;;6277591;22;19915;-75
2022/10/27 08:30:29;;;;;;;;;;;14.80;99.90;;;;;;6275630;22;19943;-74
2022/10/27 08:32:56;;;;;;;;;;;14.90;99.90;;;;;;6277486;22;19915;-73
2022/10/27 08:35:21;;;;;;;;;;;14.90;99.90;;;;;;6275097;22;19947;-74
2022/10/27 08:37:47;;;;;;;;;;;15.00;99.90;;;;;;6273715;22;20347;-75
2022/10/27 08:40:14;;;;;;;;;;;15.00;99.90;;;;;;6275416;22;20174;-75
2022/10/27 08:42:54;;;;;;;;;;;15.10;99.90;;;;;;6274762;22;20375;-74
2022/10/27 08:45:26;;;;;;;;;;;15.10;99.90;;;;;;6277272;22;19950;-75
2022/10/27 08:47:56;;;;;;;;;;;15.20;99.90;;;;;;6277401;22;19982;-74
2022/10/27 08:50:23;;;;;;;;;;;15.30;99.90;;;;;;6275440;22;19922;-74
2022/10/27 08:53:01;;;;;;;;;;;15.30;99.90;;;;;;6276909;22;19919;-74
2022/10/27 08:55:35;;;;;;;;;;;15.50;99.90;;;;;;6273778;22;19982;-74
2022/10/27 08:58:04;;;;;;;;;;;15.50;99.90;;;;;;6275316;22;19945;-74
2022/10/27 09:00:32;;;;;;;;;;;15.60;99.90;;;;;;6275400;22;19919;-74
2022/10/27 09:02:59;;;;;;;;;;;15.80;99.90;;;;;;6277088;22;20217;-75
2022/10/27 09:05:43;;;;;;;;;;;16.00;99.90;;;;;;6277343;22;19953;-75
2022/10/27 09:08:36;;;;;;;;;;;16.30;99.90;;;;;;6276808;22;20320;-74
2022/10/27 09:11:20;;;;;;;;;;;16.50;99.90;;;;;;6275543;22;19994;-74
2022/10/27 09:14:00;;;;;;;;;;;16.70;99.90;;;;;;6275297;22;20290;-74
2022/10/27 09:16:36;;;;;;;;;;;16.90;99.90;;;;;;6302706;22;19919;-74
2022/10/27 09:19:04;;;;;;;;;;;17.20;99.90;;;;;;6280285;22;19915;-66
2022/10/27 09:21:32;;;;;;;;;;;17.20;99.90;;;;;;6305311;22;19919;-66
2022/10/27 09:24:01;;;;;;;;;;;17.30;99.90;;;;;;6280768;22;19955;-66
2022/10/27 09:26:28;;;;;;;;;;;17.50;99.90;;;;;;6305752;22;19954;-66
2022/10/27 09:28:54;;;;;;;;;;;17.50;99.90;;;;;;6308716;22;19921;-66
2022/10/27 09:31:24;;;;;;;;;;;17.50;99.90;;;;;;6309241;22;19986;-66
2022/10/27 09:33:57;;;;;;;;;;;17.50;99.90;;;;;;6309132;22;19919;-66
2022/10/27 09:36:23;;;;;;;;;;;17.60;99.90;;;;;;6307569;22;19968;-66
2022/10/27 09:38:48;;;;;;;;;;;17.60;99.90;;;;;;6309319;22;19919;-66
2022/10/27 09:41:14;;;;;;;;;;;17.60;99.90;;;;;;6255949;22;20242;-66
2022/10/27 09:43:40;;;;;;;;;;;17.50;99.90;;;;;;6281300;22;19994;-66
2022/10/27 09:46:32;;;;;;;;;;;17.60;99.90;;;;;;6309289;22;19914;-65
2022/10/27 09:49:02;;;;;;;;;;;17.60;99.90;;;;;;6300019;22;19978;-66
2022/10/27 09:51:35;;;;;;;;;;;17.60;99.90;;;;;;6255043;22;19941;-66
2022/10/27 09:54:02;;;;;;;;;;;17.60;99.90;;;;;;6308340;22;19921;-66
2022/10/27 09:56:29;;;;;;;;;;;17.60;99.90;;;;;;6280698;22;19942;-66
2022/10/27 09:59:01;;;;;;;;;;;17.60;99.90;;;;;;6280768;22;19989;-66
2022/10/27 10:01:42;;;;;;;;;;;17.60;99.90;;;;;;6307905;22;19945;-66
2022/10/27 10:04:28;;;;;;;;;;;17.60;99.90;;;;;;6307888;22;19919;-66
2022/10/27 10:06:59;;;;;;;;;;;17.70;99.90;;;;;;6304061;22;19994;-66
2022/10/27 10:09:40;;;;;;;;;;;17.70;99.90;;;;;;6307170;22;20359;-77
2022/10/27 10:12:13;;;;;;;;;;;17.80;99.90;;;;;;6279895;22;19947;-77
2022/10/27 10:14:38;;;;;;;;;;;17.80;99.90;;;;;;6307712;22;19964;-76
2022/10/27 10:17:04;;;;;;;;;;;17.90;99.90;;;;;;6279926;22;20344;-77
2022/10/27 10:19:30;;;;;;;;;;;17.90;99.90;;;;;;6254903;22;19921;-78
2022/10/27 10:21:56;;;;;;;;;;;17.90;99.90;;;;;;6306300;22;20243;-78
2022/10/27 10:24:25;;;;;;;;;;;18.00;99.90;;;;;;6306106;22;19929;-77
2022/10/27 10:26:52;;;;;;;;;;;18.00;99.90;;;;;;6278023;22;19915;-77
2022/10/27 10:29:26;;;;;;;;;;;18.00;99.90;;;;;;6253060;22;19922;-77
2022/10/27 10:32:14;;;;;;;;;;;18.10;99.90;;;;;;6305431;22;20040;-76
2022/10/27 10:34:43;;;;;;;;;;;18.20;99.90;;;;;;6305462;22;19922;-73
2022/10/27 10:37:27;;;;;;;;;;;18.20;99.90;;;;;;6277175;22;19969;-77
2022/10/27 10:39:53;;;;;;;;;;;18.30;99.90;;;;;;6278167;22;19915;-77
2022/10/27 10:42:22;;;;;;;;;;;18.40;99.90;;;;;;6306133;22;20239;-76
2022/10/27 10:45:07;;;;;;;;;;;18.50;99.90;;;;;;6306140;22;19919;-77
2022/10/27 10:47:32;;;;;;;;;;;18.60;99.90;;;;;;6305731;22;19922;-77
2022/10/27 10:50:00;;;;;;;;;;;18.60;99.90;;;;;;6306815;22;19915;-76
2022/10/27 10:52:31;;;;;;;;;;;18.70;99.90;;;;;;6307115;22;20344;-77
2022/10/27 10:54:57;;;;;;;;;;;18.80;99.90;;;;;;6279297;22;20000;-77
2022/10/27 10:57:28;;;;;;;;;;;18.80;99.90;;;;;;6303998;22;19919;-77
2022/10/27 10:59:55;;;;;;;;;;;18.80;99.90;;;;;;6306774;22;20296;-77
2022/10/27 11:02:32;;;;;;;;;;;18.80;99.90;;;;;;6307803;22;19965;-76
2022/10/27 11:05:16;;;;;;;;;;;18.80;99.90;;;;;;6305627;22;20255;-76
2022/10/27 11:07:44;;;;;;;;;;;18.80;99.90;;;;;;6280104;22;19914;-77
2022/10/27 11:10:16;;;;;;;;;;;18.80;99.90;;;;;;6307182;22;19946;-77
2022/10/27 11:12:44;;;;;;;;;;;18.80;99.90;;;;;;6280001;22;20327;-76
2022/10/27 11:15:17;;;;;;;;;;;18.90;99.90;;;;;;6308053;22;20002;-76
2022/10/27 11:17:44;;;;;;;;;;;18.90;99.90;;;;;;6280733;22;19915;-77
2022/10/27 11:20:18;;;;;;;;;;;18.90;99.90;;;;;;6307509;22;19926;-77
2022/10/27 11:22:44;;;;;;;;;;;19.00;99.90;;;;;;6279081;22;20001;-77
2022/10/27 11:25:15;;;;;;;;;;;19.00;99.90;;;;;;6278545;22;20363;-77
2022/10/27 11:27:42;;;;;;;;;;;19.10;99.90;;;;;;6278857;22;19925;-77
2022/10/27 11:30:19;;;;;;;;;;;19.20;99.90;;;;;;6279341;22;19922;-77
2022/10/27 11:33:04;;;;;;;;;;;19.30;99.90;;;;;;6279172;22;19922;-75
2022/10/27 11:35:48;;;;;;;;;;;19.30;99.90;;;;;;6307261;22;19945;-76
2022/10/27 11:38:18;;;;;;;;;;;19.40;99.90;;;;;;6307647;22;20319;-76
2022/10/27 11:41:04;;;;;;;;;;;19.40;99.90;;;;;;6280331;22;19918;-77
2022/10/27 11:43:39;;;;;;;;;;;19.40;99.90;;;;;;6279877;22;19923;-76
2022/10/27 11:46:11;;;;;;;;;;;19.40;99.90;;;;;;6280349;22;20358;-77
2022/10/27 11:48:43;;;;;;;;;;;19.30;99.90;;;;;;6307944;22;19941;-75
2022/10/27 11:51:18;;;;;;;;;;;19.20;99.90;;;;;;6253725;22;19990;-76
2022/10/27 11:53:44;;;;;;;;;;;19.30;99.90;;;;;;6278449;22;19990;-73
2022/10/27 11:56:13;;;;;;;;;;;19.20;99.90;;;;;;6279750;22;19951;-74
2022/10/27 11:58:55;;;;;;;;;;;19.20;99.90;;;;;;6279964;22;19918;-76
2022/10/27 12:01:23;;;;;;;;;;;19.20;99.90;;;;;;6307881;22;19914;-73
2022/10/27 12:04:10;;;;;;;;;;;19.20;99.90;;;;;;6279998;22;19919;-76
2022/10/27 12:06:39;;;;;;;;;;;19.10;99.90;;;;;;6307572;22;20022;-79
2022/10/27 12:09:26;;;;;;;;;;;19.20;99.90;;;;;;6307808;22;19915;-75
2022/10/27 12:11:55;;;;;;;;;;;19.20;99.90;;;;;;6307445;22;19915;-75
2022/10/27 12:14:38;;;;;;;;;;;19.10;99.90;;;;;;6307758;22;19915;-75
2022/10/27 12:17:07;;;;;;;;;;;19.20;99.90;;;;;;6278852;22;19937;-77
2022/10/27 12:19:36;;;;;;;;;;;19.30;99.90;;;;;;6279962;22;19915;-74
2022/10/27 12:22:18;;;;;;;;;;;19.20;99.90;;;;;;6306503;22;20216;-76
2022/10/27 12:24:44;;;;;;;;;;;19.20;99.90;;;;;;6307363;22;19919;-76
2022/10/27 12:27:14;;;;;;;;;;;19.20;99.90;;;;;;6306774;22;19930;-75
2022/10/27 12:29:43;;;;;;;;;;;19.30;99.90;;;;;;6279247;22;19918;-76
2022/10/27 12:32:11;;;;;;;;;;;19.40;99.90;;;;;;6306438;22;20400;-74
2022/10/27 12:34:41;;;;;;;;;;;19.40;99.90;;;;;;6306434;22;20337;-75
2022/10/27 12:37:14;;;;;;;;;;;19.40;99.90;;;;;;6305854;22;19930;-74
2022/10/27 12:39:40;;;;;;;;;;;19.50;99.90;;;;;;6305938;22;19922;-75
2022/10/27 12:42:09;;;;;;;;;;;19.50;99.90;;;;;;6279391;22;19920;-76
2022/10/27 12:44:54;;;;;;;;;;;19.60;99.90;;;;;;6277336;22;20018;-74
2022/10/27 12:47:41;;;;;;;;;;;19.70;99.90;;;;;;6305960;22;20225;-74
2022/10/27 12:50:30;;;;;;;;;;;19.80;99.90;;;;;;6306699;22;19922;-76
2022/10/27 12:53:14;;;;;;;;;;;19.80;99.90;;;;;;6286414;22;19915;-75
2022/10/27 12:55:57;;;;;;;;;;;19.90;99.90;;;;;;6307095;22;19921;-75
2022/10/27 12:58:33;;;;;;;;;;;19.80;99.90;;;;;;6307385;22;19954;-75
2022/10/27 13:01:01;;;;;;;;;;;19.80;99.90;;;;;;6306126;22;20320;-75
2022/10/27 13:03:45;;;;;;;;;;;19.80;99.90;;;;;;6307467;22;19930;-75
2022/10/27 13:06:19;;;;;;;;;;;19.80;99.90;;;;;;6281682;22;19926;-75
2022/10/27 13:08:50;;;;;;;;;;;19.80;99.90;;;;;;6309007;22;19922;-75
2022/10/27 13:11:38;;;;;;;;;;;19.80;99.90;;;;;;6281687;22;20259;-75
2022/10/27 13:14:04;;;;;;;;;;;19.90;99.90;;;;;;6281806;22;19922;-75
2022/10/27 13:16:41;;;;;;;;;;;19.90;99.90;;;;;;6307067;22;20259;-77
2022/10/27 13:19:10;;;;;;;;;;;20.00;99.90;;;;;;6281620;22;19957;-75
2022/10/27 13:21:41;;;;;;;;;;;20.00;99.90;;;;;;6308944;22;20386;-75
2022/10/27 13:24:07;;;;;;;;;;;20.10;99.90;;;;;;6308949;22;19918;-75
2022/10/27 13:26:32;;;;;;;;;;;20.10;99.90;;;;;;6281934;22;19950;-75
2022/10/27 13:29:11;;;;;;;;;;;20.20;99.90;;;;;;6309019;22;19922;-76
2022/10/27 13:31:38;;;;;;;;;;;20.20;99.90;;;;;;6309605;22;19914;-75
2022/10/27 13:34:07;;;;;;;;;;;20.10;99.90;;;;;;6281608;22;19942;-76
2022/10/27 13:36:36;;;;;;;;;;;20.10;99.90;;;;;;6281216;22;20323;-75
2022/10/27 13:39:14;;;;;;;;;;;20.00;99.90;;;;;;6307383;22;19922;-76
2022/10/27 13:41:51;;;;;;;;;;;20.00;99.90;;;;;;6307922;22;20239;-75
2022/10/27 13:44:46;;;;;;;;;;;20.00;99.90;;;;;;6307569;22;19923;-75
2022/10/27 13:47:15;;;;;;;;;;;20.10;99.90;;;;;;6280128;22;19915;-75
2022/10/27 13:49:40;;;;;;;;;;;20.20;99.90;;;;;;6280295;22;20320;-76
2022/10/27 13:52:17;;;;;;;;;;;20.20;99.90;;;;;;6309158;22;19953;-75
2022/10/27 13:54:58;;;;;;;;;;;20.20;99.90;;;;;;6281428;22;20336;-76
2022/10/27 13:57:42;;;;;;;;;;;20.20;99.90;;;;;;6308944;22;19922;-76
2022/10/27 14:00:14;;;;;;;;;;;20.10;99.90;;;;;;6309196;22;19915;-75
2022/10/27 14:02:47;;;;;;;;;;;20.10;99.90;;;;;;6308804;22;19914;-76
2022/10/27 14:05:37;;;;;;;;;;;20.00;99.90;;;;;;6281216;22;19922;-75
2022/10/27 14:08:03;;;;;;;;;;;19.90;99.90;;;;;;6281107;22;20324;-75
2022/10/27 14:10:29;;;;;;;;;;;19.80;99.90;;;;;;6308574;22;19926;-75
2022/10/27 14:12:56;;;;;;;;;;;19.80;99.90;;;;;;6308526;22;20013;-76
2022/10/27 14:15:26;;;;;;;;;;;19.70;99.90;;;;;;6280335;22;19919;-66
2022/10/27 14:17:53;;;;;;;;;;;19.60;99.90;;;;;;6308089;22;19914;-66
2022/10/27 14:20:19;;;;;;;;;;;19.60;99.90;;;;;;6308173;22;20177;-66
2022/10/27 14:22:47;;;;;;;;;;;19.50;99.90;;;;;;6308308;22;19954;-66
2022/10/27 14:25:29;;;;;;;;;;;19.40;99.90;;;;;;6279449;22;19919;-66
2022/10/27 14:28:03;;;;;;;;;;;19.40;99.90;;;;;;6308685;22;19914;-65
2022/10/27 14:30:29;;;;;;;;;;;19.30;99.90;;;;;;6307100;22;20327;-66
2022/10/27 14:32:55;;;;;;;;;;;19.30;99.90;;;;;;6280645;22;19915;-65